Fesco Vladimir — 5BSL2 — position and weather

sailwx.info

Track history (hours):
 
Tides and Currents Weather Stations Pressure Air Temp Water Temp Dewpoint Dewpoint Depression Visibility Wind Speed Wind Dir Waves Ship Positions

Fesco Vladimir

Last reported at 2017-Nov-18 08:30 UTC. Time now 2017-Nov-18 08:53 UTC.
Position N 59°53' E 030°13'.

Length 184 m; draft 9 m.

Type: Ship (hazmat cat A). MMSI: 209777000.

Date/timePositionNaut miles runAvg speedWind from/ knotsBaromVisibWave heightAir tempDewpointWater temp
2017-Nov-18 08:30N 59°53' E 030°13'0 0.0
2017-Nov-18 08:00N 59°53' E 030°13'0 0.0
2017-Nov-18 07:30N 59°53' E 030°13'0 0.0
2017-Nov-18 07:00N 59°53' E 030°13'0 0.0
2017-Nov-18 06:30N 59°53' E 030°13'0 0.0
2017-Nov-18 06:00N 59°53' E 030°13'0 0.0
2017-Nov-18 05:30N 59°53' E 030°13'0 0.0
2017-Nov-18 05:00N 59°53' E 030°13'0 0.0
2017-Nov-18 04:30N 59°53' E 030°13'0 0.0
2017-Nov-18 04:00N 59°53' E 030°13'0 0.0
2017-Nov-18 03:30N 59°53' E 030°13'0 0.0
2017-Nov-18 03:00N 59°53' E 030°13'0 0.0
2017-Nov-18 02:30N 59°53' E 030°13'0 0.0
2017-Nov-18 02:00N 59°53' E 030°13'1 2.4
2017-Nov-18 01:30N 59°53' E 030°11'1 1.0
2017-Nov-18 01:00N 59°53' E 030°11'0 0.0
2017-Nov-18 00:30N 59°53' E 030°11'0 0.0
2017-Nov-18 00:00N 59°53' E 030°11'0 0.0
2017-Nov-17 23:30N 59°53' E 030°11'0 0.0
2017-Nov-17 23:00N 59°53' E 030°11'0 0.0
2017-Nov-17 22:30N 59°53' E 030°11'0 0.0
2017-Nov-17 22:00N 59°53' E 030°11'0 0.0
2017-Nov-17 21:30N 59°53' E 030°11'0 0.0
2017-Nov-17 21:00N 59°53' E 030°11'0 0.0
2017-Nov-17 20:30N 59°53' E 030°11'0 0.0
2017-Nov-17 20:00N 59°53' E 030°11'0 0.0
2017-Nov-17 19:30N 59°53' E 030°11'0 0.0
2017-Nov-17 19:00N 59°53' E 030°11'0 0.0
2017-Nov-17 18:30N 59°53' E 030°11'0 0.0
2017-Nov-17 18:00N 59°53' E 030°11'0 0.0
2017-Nov-17 17:30N 59°53' E 030°11'0 0.0
2017-Nov-17 17:00N 59°53' E 030°11'0 0.0
2017-Nov-17 16:27N 59°53' E 030°11'0 0.0
2017-Nov-17 16:00N 59°53' E 030°11'0 0.0
2017-Nov-17 15:30N 59°53' E 030°11'0 0.0
2017-Nov-17 15:00N 59°53' E 030°11'0 0.0
2017-Nov-17 14:30N 59°53' E 030°11'1 1.4
2017-Nov-17 14:00N 59°53' E 030°10'4 8.1
2017-Nov-17 13:30N 59°55' E 030°03'612.3
2017-Nov-17 13:01N 59°57' E 029°51'4 7.6
2017-Nov-17 12:30N 59°59' E 029°44'3 5.6
2017-Nov-17 12:00N 59°56' E 029°41'0 0.0
2017-Nov-17 11:28N 59°56' E 029°41'0 0.0
2017-Nov-17 10:58N 59°56' E 029°41'0 0.0
2017-Nov-17 10:28N 59°56' E 029°41'0 0.0
2017-Nov-17 09:58N 59°56' E 029°41'0 0.0
2017-Nov-17 09:28N 59°56' E 029°41'0 0.0
2017-Nov-17 08:58N 59°56' E 029°41'0 0.0
2017-Nov-17 08:28N 59°56' E 029°41'0 0.0
2017-Nov-17 07:58N 59°56' E 029°41'0 0.0
2017-Nov-17 07:28N 59°56' E 029°41'0 0.0
2017-Nov-17 06:58N 59°56' E 029°41'0 0.0
2017-Nov-17 06:28N 59°56' E 029°41'0 0.0
2017-Nov-17 05:58N 59°56' E 029°41'0 0.0
2017-Nov-17 05:28N 59°56' E 029°41'0 0.0
2017-Nov-17 04:58N 59°56' E 029°41'0 0.0
2017-Nov-17 04:28N 59°56' E 029°41'0 0.0
2017-Nov-17 03:58N 59°56' E 029°41'0 0.3
2017-Nov-17 03:30N 59°56' E 029°42'3 5.1
2017-Nov-17 03:00N 59°58' E 029°45'5 9.3
2017-Nov-17 02:30N 60°00' E 029°36'7 7.8
2017-Nov-17 01:34N 60°02' E 029°22'0 6.0
2017-Nov-17 01:30N 60°02' E 029°21'3 6.3
2017-Nov-17 00:58N 60°02' E 029°14'4 6.6
2017-Nov-17 00:19N 60°02' E 029°06'2 6.4
2017-Nov-17 00:00N 60°02' E 029°02'3 6.5
2017-Nov-16 23:30N 60°02' E 028°55'3 6.4
2017-Nov-16 23:00N 60°02' E 028°49'3 6.2
2017-Nov-16 22:31N 60°02' E 028°42'3 5.8
2017-Nov-16 22:00N 60°01' E 028°37'611.1
2017-Nov-16 21:30N 59°56' E 028°35'611.5
2017-Nov-16 21:01N 59°51' E 028°28'713.8
2017-Nov-16 20:30N 59°45' E 028°24'4 7.9
2017-Nov-16 20:00N 59°41' E 028°24'0 0.5
2017-Nov-16 19:30N 59°40' E 028°24'0 0.0
2017-Nov-16 19:00N 59°40' E 028°24'0 0.0
2017-Nov-16 18:30N 59°40' E 028°24'0 0.0
2017-Nov-16 18:00N 59°40' E 028°24'0 0.0
2017-Nov-16 17:30N 59°40' E 028°24'0 0.0
2017-Nov-16 17:00N 59°40' E 028°24'0 0.0
2017-Nov-16 16:30N 59°40' E 028°24'0 0.0
2017-Nov-16 16:00N 59°40' E 028°24'0 0.0
2017-Nov-16 15:30N 59°40' E 028°24'0 0.0
2017-Nov-16 15:00N 59°40' E 028°24'0 0.0
2017-Nov-16 14:30N 59°40' E 028°24'0 0.0
2017-Nov-16 14:00N 59°40' E 028°24'0 0.0
2017-Nov-16 13:30N 59°40' E 028°24'0 0.0
2017-Nov-16 13:00N 59°40' E 028°24'0 0.0
2017-Nov-16 12:30N 59°40' E 028°24'0 0.0
2017-Nov-16 11:51N 59°40' E 028°24'0 0.0
2017-Nov-16 11:21N 59°40' E 028°24'0 0.0
2017-Nov-16 10:51N 59°40' E 028°24'0 1.1
2017-Nov-16 10:30N 59°41' E 028°24'4 7.1
2017-Nov-16 10:00N 59°44' E 028°24'612.9
2017-Nov-16 09:30N 59°51' E 028°26'714.5
2017-Nov-16 09:00N 59°57' E 028°34'5 9.8
2017-Nov-16 08:30N 60°01' E 028°36'612.4
2017-Nov-16 08:00N 60°03' E 028°24'612.7
2017-Nov-16 07:31N 60°07' E 028°14'713.5
2017-Nov-16 07:01N 60°09' E 028°01'714.9
2017-Nov-16 06:30N 60°11' E 027°46'714.7
2017-Nov-16 06:01N 60°07' E 027°34'714.7
2017-Nov-16 05:30N 60°03' E 027°21'714.8
2017-Nov-16 05:01N 59°59' E 027°09'714.0
2017-Nov-16 04:31N 59°58' E 026°55'714.9
2017-Nov-16 04:01N 59°59' E 026°40'714.6
2017-Nov-16 03:31N 59°58' E 026°26'2915.6
2017-Nov-16 01:38N 59°50' E 025°30'515.8
2017-Nov-16 01:18N 59°49' E 025°19'515.7
2017-Nov-16 01:00N 59°48' E 025°10'815.8
2017-Nov-16 00:31N 59°46' E 024°55'815.8
2017-Nov-16 00:01N 59°45' E 024°40'815.9
2017-Nov-15 23:31N 59°43' E 024°24'815.7
2017-Nov-15 23:00N 59°41' E 024°09'815.8
2017-Nov-15 22:30N 59°38' E 023°54'815.6
2017-Nov-15 22:00N 59°36' E 023°40'815.5
2017-Nov-15 21:30N 59°33' E 023°26'815.5
2017-Nov-15 21:00N 59°31' E 023°11'815.4
2017-Nov-15 20:29N 59°28' E 022°56'28615.3
2017-Nov-15 01:44N 56°03' E 016°44'515.6
2017-Nov-15 01:24N 55°60' E 016°35'615.3
2017-Nov-15 01:00N 55°57' E 016°26'815.4
2017-Nov-15 00:30N 55°53' E 016°14'815.4
2017-Nov-15 00:00N 55°50' E 016°02'815.3
2017-Nov-14 23:30N 55°46' E 015°50'815.1
2017-Nov-14 23:00N 55°42' E 015°38'815.1
2017-Nov-14 22:30N 55°39' E 015°27'815.4
2017-Nov-14 22:00N 55°35' E 015°15'815.5
2017-Nov-14 21:31N 55°31' E 015°03'815.6
2017-Nov-14 21:00N 55°27' E 014°51'815.2
2017-Nov-14 20:31N 55°24' E 014°39'714.5
2017-Nov-14 20:00N 55°18' E 014°31'714.7
2017-Nov-14 19:30N 55°12' E 014°23'714.3
2017-Nov-14 19:01N 55°06' E 014°16'814.3
2017-Nov-14 18:28N 55°01' E 014°06'915.3
2017-Nov-14 17:52N 54°58' E 013°51'515.1
2017-Nov-14 17:30N 54°56' E 013°42'3415.6
2017-Nov-14 15:20N 54°46' E 012°46'1715.9
2017-Nov-14 14:16N 54°36' E 012°22'414.5
2017-Nov-14 14:00N 54°33' E 012°17'1313.2
2017-Nov-14 13:01N 54°25' E 012°01'015.4
2017-Nov-14 13:00N 54°25' E 012°00'1115.4
2017-Nov-14 12:19N 54°26' E 011°42'516.0
2017-Nov-14 12:00N 54°28' E 011°34'815.9
2017-Nov-14 11:31N 54°32' E 011°22'815.3
2017-Nov-14 11:00N 54°35' E 011°10'815.4
2017-Nov-14 10:30N 54°35' E 010°57'815.6
2017-Nov-14 10:00N 54°34' E 010°44'815.4
2017-Nov-14 09:30N 54°33' E 010°31'714.1
2017-Nov-14 09:00N 54°30' E 010°20'15 5.8
2017-Nov-14 06:25N 54°21' E 009°59'3 5.8
2017-Nov-14 05:58N 54°21' E 009°55'2 3.6
2017-Nov-14 05:24N 54°22' E 009°52'2 5.8
2017-Nov-14 05:00N 54°22' E 009°48'3 6.8
2017-Nov-14 04:30N 54°20' E 009°43'3 5.7
2017-Nov-14 04:00N 54°17' E 009°40'3 6.2
2017-Nov-14 03:30N 54°15' E 009°37'3 6.5
2017-Nov-14 03:00N 54°12' E 009°34'1 1.9
2017-Nov-14 02:30N 54°12' E 009°32'3 6.6
2017-Nov-14 02:01N 54°11' E 009°27'3 5.4
2017-Nov-14 01:30N 54°09' E 009°23'3 6.5
2017-Nov-14 01:00N 54°07' E 009°20'4 7.0
2017-Nov-14 00:31N 54°03' E 009°18'2 4.9
2017-Nov-14 00:01N 54°01' E 009°18'3 6.3
2017-Nov-13 23:30N 53°58' E 009°16'3 5.2
2017-Nov-13 23:01N 53°56' E 009°13'3 5.5
2017-Nov-13 22:30N 53°54' E 009°09'1 1.3
2017-Nov-13 22:01N 53°54' E 009°09'35 1.8
2017-Nov-13 01:58N 53°32' E 009°55'0 0.0
2017-Nov-13 01:28N 53°32' E 009°55'0 0.0
2017-Nov-13 00:58N 53°32' E 009°55'0 0.0
2017-Nov-13 00:25N 53°32' E 009°55'0 0.0
2017-Nov-12 23:58N 53°32' E 009°55'0 0.0
2017-Nov-12 23:28N 53°32' E 009°55'0 0.0
2017-Nov-12 22:58N 53°32' E 009°55'0 0.0
2017-Nov-12 22:28N 53°32' E 009°55'0 0.0
2017-Nov-12 21:58N 53°32' E 009°55'0 0.0
2017-Nov-12 21:28N 53°32' E 009°55'0 0.0
2017-Nov-12 20:58N 53°32' E 009°55'0 0.0
2017-Nov-12 20:28N 53°32' E 009°55'0 0.0
2017-Nov-12 19:58N 53°32' E 009°55'0 0.0
2017-Nov-12 19:28N 53°32' E 009°55'0 0.0
2017-Nov-12 18:58N 53°32' E 009°55'0 0.0
2017-Nov-12 18:28N 53°32' E 009°55'0 0.0
2017-Nov-12 17:58N 53°32' E 009°55'0 0.0
2017-Nov-12 17:28N 53°32' E 009°55'0 0.0
2017-Nov-12 16:58N 53°32' E 009°55'0 0.0
2017-Nov-12 16:28N 53°32' E 009°55'0 0.0
2017-Nov-12 15:58N 53°32' E 009°55'0 0.0
2017-Nov-12 15:28N 53°32' E 009°55'0 0.0
2017-Nov-12 14:58N 53°32' E 009°55'0 0.0
2017-Nov-12 14:28N 53°32' E 009°55'0 0.0
2017-Nov-12 13:58N 53°32' E 009°55'0 0.0
2017-Nov-12 13:28N 53°32' E 009°55'0 0.0
2017-Nov-12 12:58N 53°32' E 009°55'0 0.0
2017-Nov-12 12:28N 53°32' E 009°55'0 0.0
2017-Nov-12 11:58N 53°32' E 009°55'0 0.0
2017-Nov-12 11:28N 53°32' E 009°55'0 0.0
2017-Nov-12 10:58N 53°32' E 009°55'0 0.0
2017-Nov-12 10:28N 53°32' E 009°55'0 0.0
2017-Nov-12 09:58N 53°32' E 009°55'0 0.0
2017-Nov-12 09:28N 53°32' E 009°55'0 0.0
2017-Nov-12 08:58N 53°32' E 009°55'0 0.0
2017-Nov-12 08:28N 53°32' E 009°55'0 0.0
2017-Nov-12 07:58N 53°32' E 009°55'0 0.0
2017-Nov-12 07:28N 53°32' E 009°55'0 0.0
2017-Nov-12 06:58N 53°32' E 009°55'0 0.0
2017-Nov-12 06:28N 53°32' E 009°55'0 0.0
2017-Nov-12 05:58N 53°32' E 009°55'0 0.0
2017-Nov-12 05:28N 53°32' E 009°55'0 0.0
2017-Nov-12 04:58N 53°32' E 009°55'0 0.0
2017-Nov-12 04:29N 53°32' E 009°55'1 1.5
2017-Nov-12 04:00N 53°32' E 009°54'2 3.7
2017-Nov-12 03:30N 53°31' E 009°56'0 0.5
2017-Nov-12 03:00N 53°31' E 009°56'0 0.0
2017-Nov-12 02:30N 53°31' E 009°56'0 0.0
2017-Nov-12 02:00N 53°31' E 009°56'0 0.0
2017-Nov-12 01:30N 53°31' E 009°56'0 0.0
2017-Nov-12 01:00N 53°31' E 009°56'0 0.0
2017-Nov-12 00:30N 53°31' E 009°56'0 0.0
2017-Nov-12 00:00N 53°31' E 009°56'0 0.0
2017-Nov-11 23:30N 53°31' E 009°56'0 0.0
2017-Nov-11 23:00N 53°31' E 009°56'0 0.0
2017-Nov-11 22:30N 53°31' E 009°56'0 0.0
2017-Nov-11 22:00N 53°31' E 009°56'0 0.0
2017-Nov-11 21:30N 53°31' E 009°56'0 0.0
2017-Nov-11 21:00N 53°31' E 009°56'0 0.0
2017-Nov-11 20:30N 53°31' E 009°56'0 0.0
2017-Nov-11 20:00N 53°31' E 009°56'0 0.0
2017-Nov-11 19:30N 53°31' E 009°56'0 0.0
2017-Nov-11 19:00N 53°31' E 009°56'2 3.7
2017-Nov-11 18:30N 53°32' E 009°56'4 9.0
2017-Nov-11 18:01N 53°33' E 009°48'612.2
2017-Nov-11 17:30N 53°34' E 009°38'713.3
2017-Nov-11 17:00N 53°39' E 009°31'713.1
2017-Nov-11 16:30N 53°45' E 009°25'816.5
2017-Nov-11 16:01N 53°52' E 009°17'713.9
2017-Nov-11 15:31N 53°52' E 009°06'815.8
2017-Nov-11 15:00N 53°50' E 008°53'713.7
2017-Nov-11 14:31N 53°53' E 008°42'816.5
2017-Nov-11 14:00N 53°58' E 008°31'917.4
2017-Nov-11 13:30N 53°60' E 008°16'510.7
2017-Nov-11 13:00N 53°59' E 008°07'510.6
2017-Nov-11 12:30N 54°00' E 007°58'612.8
2017-Nov-11 12:00N 54°03' E 007°48'612.3
2017-Nov-11 11:30N 54°05' E 007°38'2 3.4
2017-Nov-11 11:00N 54°04' E 007°41'4 3.7
2017-Nov-11 09:56N 54°03' E 007°47'2 4.2
2017-Nov-11 09:30N 54°04' E 007°50'3 5.5
2017-Nov-11 09:00N 54°05' E 007°47'3 5.5
2017-Nov-11 08:29N 54°07' E 007°43'2 4.1
2017-Nov-11 08:00N 54°05' E 007°42'5 3.9
2017-Nov-11 06:43N 54°03' E 007°50'1 3.2
2017-Nov-11 06:27N 54°03' E 007°52'1 2.7
2017-Nov-11 06:00N 54°04' E 007°51'3 6.6
2017-Nov-11 05:30N 54°06' E 007°46'9 7.4
2017-Nov-11 04:17N 54°09' E 007°32'3 5.3
2017-Nov-11 03:48N 54°07' E 007°33'1 4.8
2017-Nov-11 03:30N 54°05' E 007°34'2 4.7
2017-Nov-11 03:00N 54°03' E 007°36'2 4.6
2017-Nov-11 02:30N 54°02' E 007°38'2 4.6
2017-Nov-11 02:00N 53°59' E 007°40'3 5.4
2017-Nov-11 01:30N 53°57' E 007°42'3 6.4
2017-Nov-11 00:58N 53°54' E 007°45'3 4.4
2017-Nov-11 00:23N 53°53' E 007°48'3 8.6
2017-Nov-11 00:00N 53°50' E 007°52'611.6
2017-Nov-10 23:30N 53°48' E 008°01'713.6
2017-Nov-10 23:00N 53°42' E 008°05'712.8
2017-Nov-10 22:30N 53°36' E 008°09'0 0.5
2017-Nov-10 21:59N 53°35' E 008°09'0 0.0
2017-Nov-10 21:29N 53°35' E 008°09'0 0.0
2017-Nov-10 20:59N 53°35' E 008°09'0 0.0
2017-Nov-10 20:26N 53°35' E 008°09'0 0.0
2017-Nov-10 19:59N 53°35' E 008°09'0 0.0
2017-Nov-10 19:29N 53°35' E 008°09'0 0.0
2017-Nov-10 18:59N 53°35' E 008°09'0 0.0
2017-Nov-10 18:29N 53°35' E 008°09'0 0.0
2017-Nov-10 17:56N 53°35' E 008°09'0 0.0
2017-Nov-10 17:29N 53°35' E 008°09'0 0.0
2017-Nov-10 16:59N 53°35' E 008°09'0 0.0
2017-Nov-10 16:29N 53°35' E 008°09'0 0.0
2017-Nov-10 15:59N 53°35' E 008°09'0 0.0
2017-Nov-10 15:29N 53°35' E 008°09'0 0.0
2017-Nov-10 14:59N 53°35' E 008°09'0 0.0
2017-Nov-10 14:29N 53°35' E 008°09'0 0.0
2017-Nov-10 13:59N 53°35' E 008°09'0 0.0
2017-Nov-10 13:20N 53°35' E 008°09'0 0.0
2017-Nov-10 12:59N 53°35' E 008°09'0 0.0
2017-Nov-10 12:29N 53°35' E 008°09'0 0.0
2017-Nov-10 11:59N 53°35' E 008°09'0 0.0
2017-Nov-10 11:29N 53°35' E 008°09'0 0.0
2017-Nov-10 10:59N 53°35' E 008°09'0 0.0
2017-Nov-10 10:23N 53°35' E 008°09'0 0.0
2017-Nov-10 09:59N 53°35' E 008°09'0 0.0
2017-Nov-10 09:29N 53°35' E 008°09'0 0.0
2017-Nov-10 08:56N 53°35' E 008°09'0 0.0
2017-Nov-10 08:29N 53°35' E 008°09'0 0.0
2017-Nov-10 07:59N 53°35' E 008°09'0 0.0
2017-Nov-10 07:29N 53°35' E 008°09'0 0.0
2017-Nov-10 06:59N 53°35' E 008°09'0 0.0
2017-Nov-10 06:29N 53°35' E 008°09'0 0.0
2017-Nov-10 05:53N 53°35' E 008°09'0 0.0
2017-Nov-10 05:29N 53°35' E 008°09'0 0.0
2017-Nov-10 04:59N 53°35' E 008°09'0 0.0
2017-Nov-10 04:29N 53°35' E 008°09'0 0.0
2017-Nov-10 03:59N 53°35' E 008°09'0 0.0
2017-Nov-10 03:29N 53°35' E 008°09'0 0.3
2017-Nov-10 03:00N 53°35' E 008°09'2 4.8
2017-Nov-10 02:30N 53°38' E 008°09'816.6
2017-Nov-10 02:00N 53°45' E 008°03'815.8
2017-Nov-10 01:30N 53°50' E 007°52'5 9.2
2017-Nov-10 01:00N 53°54' E 007°48'0 0.4
2017-Nov-09 23:44N 53°54' E 007°48'0 0.0
2017-Nov-09 23:29N 53°54' E 007°48'0 0.0
2017-Nov-09 22:59N 53°54' E 007°48'0 0.0
2017-Nov-09 22:23N 53°54' E 007°48'0 0.0
2017-Nov-09 21:59N 53°54' E 007°48'0 0.0
2017-Nov-09 21:26N 53°54' E 007°48'0 0.0
2017-Nov-09 20:59N 53°54' E 007°48'0 0.0
2017-Nov-09 20:26N 53°54' E 007°48'0 0.0
2017-Nov-09 19:59N 53°54' E 007°48'0 0.0
2017-Nov-09 19:29N 53°54' E 007°48'0 0.2
2017-Nov-09 18:38N 53°54' E 007°48'0 0.1
2017-Nov-09 18:29N 53°54' E 007°48'0 0.0
2017-Nov-09 13:30N 53°54' E 007°48'10 4.0
2017-Nov-09 11:01N 54°01' E 008°00'010.3
2017-Nov-09 10:59N 54°01' E 008°01'510.7
2017-Nov-09 10:30N 54°01' E 008°10'611.6
2017-Nov-09 10:00N 53°60' E 008°19'816.1
2017-Nov-09 09:30N 53°58' E 008°33'816.7
2017-Nov-09 09:00N 53°53' E 008°43'816.4
2017-Nov-09 08:30N 53°51' E 008°57'714.8
2017-Nov-09 08:00N 53°54' E 009°09'0 0.3
2017-Nov-09 07:30N 53°54' E 009°09'3 5.7
2017-Nov-09 07:00N 53°56' E 009°12'3 6.9
2017-Nov-09 06:30N 53°58' E 009°16'4 7.0
2017-Nov-09 06:00N 54°02' E 009°18'4 7.1
2017-Nov-09 05:30N 54°05' E 009°19'3 6.8
2017-Nov-09 05:00N 54°08' E 009°21'3 5.5
2017-Nov-09 04:30N 54°10' E 009°25'3 6.8
2017-Nov-09 04:00N 54°11' E 009°30'2 4.1
2017-Nov-09 03:30N 54°12' E 009°33'1 1.4
2017-Nov-09 02:58N 54°12' E 009°34'3 6.4
2017-Nov-09 02:30N 54°15' E 009°37'1 1.9
2017-Nov-09 02:00N 54°16' E 009°37'3 5.7
2017-Nov-09 01:30N 54°18' E 009°41'3 6.4
2017-Nov-09 01:00N 54°20' E 009°44'3 6.7
2017-Nov-09 00:30N 54°22' E 009°49'3 5.1
2017-Nov-09 00:00N 54°21' E 009°54'3 4.6
2017-Nov-08 23:24N 54°21' E 009°58'7 3.3
2017-Nov-08 21:11N 54°22' E 010°11'1 3.0
2017-Nov-08 20:41N 54°23' E 010°12'713.2
2017-Nov-08 20:09N 54°30' E 010°17'1 9.8
2017-Nov-08 20:00N 54°30' E 010°19'713.1
2017-Nov-08 19:30N 54°33' E 010°30'613.0
2017-Nov-08 19:01N 54°35' E 010°41'713.3
2017-Nov-08 18:30N 54°36' E 010°52'714.2
2017-Nov-08 18:01N 54°36' E 011°04'713.7
2017-Nov-08 17:30N 54°35' E 011°16'714.6
2017-Nov-08 17:01N 54°31' E 011°27'714.7
2017-Nov-08 16:30N 54°28' E 011°38'714.2
2017-Nov-08 16:01N 54°26' E 011°50'714.3
2017-Nov-08 15:30N 54°26' E 012°02'612.0
2017-Nov-08 15:00N 54°28' E 012°12'713.4
2017-Nov-08 14:30N 54°34' E 012°15'612.9
2017-Nov-08 14:00N 54°39' E 012°22'713.9
2017-Nov-08 13:29N 54°43' E 012°33'4613.5
2017-Nov-08 10:02N 55°01' E 013°48'212.6
2017-Nov-08 09:54N 55°01' E 013°50'513.0
2017-Nov-08 09:29N 55°03' E 013°59'612.4
2017-Nov-08 08:58N 55°07' E 014°08'613.2
2017-Nov-08 08:30N 55°12' E 014°15'  
Track history (hours):
 
Tides and Currents Weather Stations Pressure Air Temp Water Temp Dewpoint Dewpoint Depression Visibility Wind Speed Wind Dir Waves Ship Positions

Fesco Vladimir

Last reported at 2017-Nov-18 08:30 UTC. Time now 2017-Nov-18 08:53 UTC.
Position N 59°53' E 030°13'.

Length 184 m; draft 9 m.

Type: Ship (hazmat cat A). MMSI: 209777000.

Date/timePositionNaut miles runAvg speedWind from/ knotsBaromVisibWave heightAir tempDewpointWater temp
2017-Nov-18 08:30N 59°53' E 030°13'0 0.0
2017-Nov-18 08:00N 59°53' E 030°13'0 0.0
2017-Nov-18 07:30N 59°53' E 030°13'0 0.0
2017-Nov-18 07:00N 59°53' E 030°13'0 0.0
2017-Nov-18 06:30N 59°53' E 030°13'0 0.0
2017-Nov-18 06:00N 59°53' E 030°13'0 0.0
2017-Nov-18 05:30N 59°53' E 030°13'0 0.0
2017-Nov-18 05:00N 59°53' E 030°13'0 0.0
2017-Nov-18 04:30N 59°53' E 030°13'0 0.0
2017-Nov-18 04:00N 59°53' E 030°13'0 0.0
2017-Nov-18 03:30N 59°53' E 030°13'0 0.0
2017-Nov-18 03:00N 59°53' E 030°13'0 0.0
2017-Nov-18 02:30N 59°53' E 030°13'0 0.0
2017-Nov-18 02:00N 59°53' E 030°13'1 2.4
2017-Nov-18 01:30N 59°53' E 030°11'1 1.0
2017-Nov-18 01:00N 59°53' E 030°11'0 0.0
2017-Nov-18 00:30N 59°53' E 030°11'0 0.0
2017-Nov-18 00:00N 59°53' E 030°11'0 0.0
2017-Nov-17 23:30N 59°53' E 030°11'0 0.0
2017-Nov-17 23:00N 59°53' E 030°11'0 0.0
2017-Nov-17 22:30N 59°53' E 030°11'0 0.0
2017-Nov-17 22:00N 59°53' E 030°11'0 0.0
2017-Nov-17 21:30N 59°53' E 030°11'0 0.0
2017-Nov-17 21:00N 59°53' E 030°11'0 0.0
2017-Nov-17 20:30N 59°53' E 030°11'0 0.0
2017-Nov-17 20:00N 59°53' E 030°11'0 0.0
2017-Nov-17 19:30N 59°53' E 030°11'0 0.0
2017-Nov-17 19:00N 59°53' E 030°11'0 0.0
2017-Nov-17 18:30N 59°53' E 030°11'0 0.0
2017-Nov-17 18:00N 59°53' E 030°11'0 0.0
2017-Nov-17 17:30N 59°53' E 030°11'0 0.0
2017-Nov-17 17:00N 59°53' E 030°11'0 0.0
2017-Nov-17 16:27N 59°53' E 030°11'0 0.0
2017-Nov-17 16:00N 59°53' E 030°11'0 0.0
2017-Nov-17 15:30N 59°53' E 030°11'0 0.0
2017-Nov-17 15:00N 59°53' E 030°11'0 0.0
2017-Nov-17 14:30N 59°53' E 030°11'1 1.4
2017-Nov-17 14:00N 59°53' E 030°10'4 8.1
2017-Nov-17 13:30N 59°55' E 030°03'612.3
2017-Nov-17 13:01N 59°57' E 029°51'4 7.6
2017-Nov-17 12:30N 59°59' E 029°44'3 5.6
2017-Nov-17 12:00N 59°56' E 029°41'0 0.0
2017-Nov-17 11:28N 59°56' E 029°41'0 0.0
2017-Nov-17 10:58N 59°56' E 029°41'0 0.0
2017-Nov-17 10:28N 59°56' E 029°41'0 0.0
2017-Nov-17 09:58N 59°56' E 029°41'0 0.0
2017-Nov-17 09:28N 59°56' E 029°41'0 0.0
2017-Nov-17 08:58N 59°56' E 029°41'0 0.0
2017-Nov-17 08:28N 59°56' E 029°41'0 0.0
2017-Nov-17 07:58N 59°56' E 029°41'0 0.0
2017-Nov-17 07:28N 59°56' E 029°41'0 0.0
2017-Nov-17 06:58N 59°56' E 029°41'0 0.0
2017-Nov-17 06:28N 59°56' E 029°41'0 0.0
2017-Nov-17 05:58N 59°56' E 029°41'0 0.0
2017-Nov-17 05:28N 59°56' E 029°41'0 0.0
2017-Nov-17 04:58N 59°56' E 029°41'0 0.0
2017-Nov-17 04:28N 59°56' E 029°41'0 0.0
2017-Nov-17 03:58N 59°56' E 029°41'0 0.3
2017-Nov-17 03:30N 59°56' E 029°42'3 5.1
2017-Nov-17 03:00N 59°58' E 029°45'5 9.3
2017-Nov-17 02:30N 60°00' E 029°36'7 7.8
2017-Nov-17 01:34N 60°02' E 029°22'0 6.0
2017-Nov-17 01:30N 60°02' E 029°21'3 6.3
2017-Nov-17 00:58N 60°02' E 029°14'4 6.6
2017-Nov-17 00:19N 60°02' E 029°06'2 6.4
2017-Nov-17 00:00N 60°02' E 029°02'3 6.5
2017-Nov-16 23:30N 60°02' E 028°55'3 6.4
2017-Nov-16 23:00N 60°02' E 028°49'3 6.2
2017-Nov-16 22:31N 60°02' E 028°42'3 5.8
2017-Nov-16 22:00N 60°01' E 028°37'611.1
2017-Nov-16 21:30N 59°56' E 028°35'611.5
2017-Nov-16 21:01N 59°51' E 028°28'713.8
2017-Nov-16 20:30N 59°45' E 028°24'4 7.9
2017-Nov-16 20:00N 59°41' E 028°24'0 0.5
2017-Nov-16 19:30N 59°40' E 028°24'0 0.0
2017-Nov-16 19:00N 59°40' E 028°24'0 0.0
2017-Nov-16 18:30N 59°40' E 028°24'0 0.0
2017-Nov-16 18:00N 59°40' E 028°24'0 0.0
2017-Nov-16 17:30N 59°40' E 028°24'0 0.0
2017-Nov-16 17:00N 59°40' E 028°24'0 0.0
2017-Nov-16 16:30N 59°40' E 028°24'0 0.0
2017-Nov-16 16:00N 59°40' E 028°24'0 0.0
2017-Nov-16 15:30N 59°40' E 028°24'0 0.0
2017-Nov-16 15:00N 59°40' E 028°24'0 0.0
2017-Nov-16 14:30N 59°40' E 028°24'0 0.0
2017-Nov-16 14:00N 59°40' E 028°24'0 0.0
2017-Nov-16 13:30N 59°40' E 028°24'0 0.0
2017-Nov-16 13:00N 59°40' E 028°24'0 0.0
2017-Nov-16 12:30N 59°40' E 028°24'0 0.0
2017-Nov-16 11:51N 59°40' E 028°24'0 0.0
2017-Nov-16 11:21N 59°40' E 028°24'0 0.0
2017-Nov-16 10:51N 59°40' E 028°24'0 1.1
2017-Nov-16 10:30N 59°41' E 028°24'4 7.1
2017-Nov-16 10:00N 59°44' E 028°24'612.9
2017-Nov-16 09:30N 59°51' E 028°26'714.5
2017-Nov-16 09:00N 59°57' E 028°34'5 9.8
2017-Nov-16 08:30N 60°01' E 028°36'612.4
2017-Nov-16 08:00N 60°03' E 028°24'612.7
2017-Nov-16 07:31N 60°07' E 028°14'713.5
2017-Nov-16 07:01N 60°09' E 028°01'714.9
2017-Nov-16 06:30N 60°11' E 027°46'714.7
2017-Nov-16 06:01N 60°07' E 027°34'714.7
2017-Nov-16 05:30N 60°03' E 027°21'714.8
2017-Nov-16 05:01N 59°59' E 027°09'714.0
2017-Nov-16 04:31N 59°58' E 026°55'714.9
2017-Nov-16 04:01N 59°59' E 026°40'714.6
2017-Nov-16 03:31N 59°58' E 026°26'2915.6
2017-Nov-16 01:38N 59°50' E 025°30'515.8
2017-Nov-16 01:18N 59°49' E 025°19'515.7
2017-Nov-16 01:00N 59°48' E 025°10'815.8
2017-Nov-16 00:31N 59°46' E 024°55'815.8
2017-Nov-16 00:01N 59°45' E 024°40'815.9
2017-Nov-15 23:31N 59°43' E 024°24'815.7
2017-Nov-15 23:00N 59°41' E 024°09'815.8
2017-Nov-15 22:30N 59°38' E 023°54'815.6
2017-Nov-15 22:00N 59°36' E 023°40'815.5
2017-Nov-15 21:30N 59°33' E 023°26'815.5
2017-Nov-15 21:00N 59°31' E 023°11'815.4
2017-Nov-15 20:29N 59°28' E 022°56'28615.3
2017-Nov-15 01:44N 56°03' E 016°44'515.6
2017-Nov-15 01:24N 55°60' E 016°35'615.3
2017-Nov-15 01:00N 55°57' E 016°26'815.4
2017-Nov-15 00:30N 55°53' E 016°14'815.4
2017-Nov-15 00:00N 55°50' E 016°02'815.3
2017-Nov-14 23:30N 55°46' E 015°50'815.1
2017-Nov-14 23:00N 55°42' E 015°38'815.1
2017-Nov-14 22:30N 55°39' E 015°27'815.4
2017-Nov-14 22:00N 55°35' E 015°15'815.5
2017-Nov-14 21:31N 55°31' E 015°03'815.6
2017-Nov-14 21:00N 55°27' E 014°51'815.2
2017-Nov-14 20:31N 55°24' E 014°39'714.5
2017-Nov-14 20:00N 55°18' E 014°31'714.7
2017-Nov-14 19:30N 55°12' E 014°23'714.3
2017-Nov-14 19:01N 55°06' E 014°16'814.3
2017-Nov-14 18:28N 55°01' E 014°06'915.3
2017-Nov-14 17:52N 54°58' E 013°51'515.1
2017-Nov-14 17:30N 54°56' E 013°42'3415.6
2017-Nov-14 15:20N 54°46' E 012°46'1715.9
2017-Nov-14 14:16N 54°36' E 012°22'414.5
2017-Nov-14 14:00N 54°33' E 012°17'1313.2
2017-Nov-14 13:01N 54°25' E 012°01'015.4
2017-Nov-14 13:00N 54°25' E 012°00'1115.4
2017-Nov-14 12:19N 54°26' E 011°42'516.0
2017-Nov-14 12:00N 54°28' E 011°34'815.9
2017-Nov-14 11:31N 54°32' E 011°22'815.3
2017-Nov-14 11:00N 54°35' E 011°10'815.4
2017-Nov-14 10:30N 54°35' E 010°57'815.6
2017-Nov-14 10:00N 54°34' E 010°44'815.4
2017-Nov-14 09:30N 54°33' E 010°31'714.1
2017-Nov-14 09:00N 54°30' E 010°20'15 5.8
2017-Nov-14 06:25N 54°21' E 009°59'3 5.8
2017-Nov-14 05:58N 54°21' E 009°55'2 3.6
2017-Nov-14 05:24N 54°22' E 009°52'2 5.8
2017-Nov-14 05:00N 54°22' E 009°48'3 6.8
2017-Nov-14 04:30N 54°20' E 009°43'3 5.7
2017-Nov-14 04:00N 54°17' E 009°40'3 6.2
2017-Nov-14 03:30N 54°15' E 009°37'3 6.5
2017-Nov-14 03:00N 54°12' E 009°34'1 1.9
2017-Nov-14 02:30N 54°12' E 009°32'3 6.6
2017-Nov-14 02:01N 54°11' E 009°27'3 5.4
2017-Nov-14 01:30N 54°09' E 009°23'3 6.5
2017-Nov-14 01:00N 54°07' E 009°20'4 7.0
2017-Nov-14 00:31N 54°03' E 009°18'2 4.9
2017-Nov-14 00:01N 54°01' E 009°18'3 6.3
2017-Nov-13 23:30N 53°58' E 009°16'3 5.2
2017-Nov-13 23:01N 53°56' E 009°13'3 5.5
2017-Nov-13 22:30N 53°54' E 009°09'1 1.3
2017-Nov-13 22:01N 53°54' E 009°09'35 1.8
2017-Nov-13 01:58N 53°32' E 009°55'0 0.0
2017-Nov-13 01:28N 53°32' E 009°55'0 0.0
2017-Nov-13 00:58N 53°32' E 009°55'0 0.0
2017-Nov-13 00:25N 53°32' E 009°55'0 0.0
2017-Nov-12 23:58N 53°32' E 009°55'0 0.0
2017-Nov-12 23:28N 53°32' E 009°55'0 0.0
2017-Nov-12 22:58N 53°32' E 009°55'0 0.0
2017-Nov-12 22:28N 53°32' E 009°55'0 0.0
2017-Nov-12 21:58N 53°32' E 009°55'0 0.0
2017-Nov-12 21:28N 53°32' E 009°55'0 0.0
2017-Nov-12 20:58N 53°32' E 009°55'0 0.0
2017-Nov-12 20:28N 53°32' E 009°55'0 0.0
2017-Nov-12 19:58N 53°32' E 009°55'0 0.0
2017-Nov-12 19:28N 53°32' E 009°55'0 0.0
2017-Nov-12 18:58N 53°32' E 009°55'0 0.0
2017-Nov-12 18:28N 53°32' E 009°55'0 0.0
2017-Nov-12 17:58N 53°32' E 009°55'0 0.0
2017-Nov-12 17:28N 53°32' E 009°55'0 0.0
2017-Nov-12 16:58N 53°32' E 009°55'0 0.0
2017-Nov-12 16:28N 53°32' E 009°55'0 0.0
2017-Nov-12 15:58N 53°32' E 009°55'0 0.0
2017-Nov-12 15:28N 53°32' E 009°55'0 0.0
2017-Nov-12 14:58N 53°32' E 009°55'0 0.0
2017-Nov-12 14:28N 53°32' E 009°55'0 0.0
2017-Nov-12 13:58N 53°32' E 009°55'0 0.0
2017-Nov-12 13:28N 53°32' E 009°55'0 0.0
2017-Nov-12 12:58N 53°32' E 009°55'0 0.0
2017-Nov-12 12:28N 53°32' E 009°55'0 0.0
2017-Nov-12 11:58N 53°32' E 009°55'0 0.0
2017-Nov-12 11:28N 53°32' E 009°55'0 0.0
2017-Nov-12 10:58N 53°32' E 009°55'0 0.0
2017-Nov-12 10:28N 53°32' E 009°55'0 0.0
2017-Nov-12 09:58N 53°32' E 009°55'0 0.0
2017-Nov-12 09:28N 53°32' E 009°55'0 0.0
2017-Nov-12 08:58N 53°32' E 009°55'0 0.0
2017-Nov-12 08:28N 53°32' E 009°55'0 0.0
2017-Nov-12 07:58N 53°32' E 009°55'0 0.0
2017-Nov-12 07:28N 53°32' E 009°55'0 0.0
2017-Nov-12 06:58N 53°32' E 009°55'0 0.0
2017-Nov-12 06:28N 53°32' E 009°55'0 0.0
2017-Nov-12 05:58N 53°32' E 009°55'0 0.0
2017-Nov-12 05:28N 53°32' E 009°55'0 0.0
2017-Nov-12 04:58N 53°32' E 009°55'0 0.0
2017-Nov-12 04:29N 53°32' E 009°55'1 1.5
2017-Nov-12 04:00N 53°32' E 009°54'2 3.7
2017-Nov-12 03:30N 53°31' E 009°56'0 0.5
2017-Nov-12 03:00N 53°31' E 009°56'0 0.0
2017-Nov-12 02:30N 53°31' E 009°56'0 0.0
2017-Nov-12 02:00N 53°31' E 009°56'0 0.0
2017-Nov-12 01:30N 53°31' E 009°56'0 0.0
2017-Nov-12 01:00N 53°31' E 009°56'0 0.0
2017-Nov-12 00:30N 53°31' E 009°56'0 0.0
2017-Nov-12 00:00N 53°31' E 009°56'0 0.0
2017-Nov-11 23:30N 53°31' E 009°56'0 0.0
2017-Nov-11 23:00N 53°31' E 009°56'0 0.0
2017-Nov-11 22:30N 53°31' E 009°56'0 0.0
2017-Nov-11 22:00N 53°31' E 009°56'0 0.0
2017-Nov-11 21:30N 53°31' E 009°56'0 0.0
2017-Nov-11 21:00N 53°31' E 009°56'0 0.0
2017-Nov-11 20:30N 53°31' E 009°56'0 0.0
2017-Nov-11 20:00N 53°31' E 009°56'0 0.0
2017-Nov-11 19:30N 53°31' E 009°56'0 0.0
2017-Nov-11 19:00N 53°31' E 009°56'2 3.7
2017-Nov-11 18:30N 53°32' E 009°56'4 9.0
2017-Nov-11 18:01N 53°33' E 009°48'612.2
2017-Nov-11 17:30N 53°34' E 009°38'713.3
2017-Nov-11 17:00N 53°39' E 009°31'713.1
2017-Nov-11 16:30N 53°45' E 009°25'816.5
2017-Nov-11 16:01N 53°52' E 009°17'713.9
2017-Nov-11 15:31N 53°52' E 009°06'815.8
2017-Nov-11 15:00N 53°50' E 008°53'713.7
2017-Nov-11 14:31N 53°53' E 008°42'816.5
2017-Nov-11 14:00N 53°58' E 008°31'917.4
2017-Nov-11 13:30N 53°60' E 008°16'510.7
2017-Nov-11 13:00N 53°59' E 008°07'510.6
2017-Nov-11 12:30N 54°00' E 007°58'612.8
2017-Nov-11 12:00N 54°03' E 007°48'612.3
2017-Nov-11 11:30N 54°05' E 007°38'2 3.4
2017-Nov-11 11:00N 54°04' E 007°41'4 3.7
2017-Nov-11 09:56N 54°03' E 007°47'2 4.2
2017-Nov-11 09:30N 54°04' E 007°50'3 5.5
2017-Nov-11 09:00N 54°05' E 007°47'3 5.5
2017-Nov-11 08:29N 54°07' E 007°43'2 4.1
2017-Nov-11 08:00N 54°05' E 007°42'5 3.9
2017-Nov-11 06:43N 54°03' E 007°50'1 3.2
2017-Nov-11 06:27N 54°03' E 007°52'1 2.7
2017-Nov-11 06:00N 54°04' E 007°51'3 6.6
2017-Nov-11 05:30N 54°06' E 007°46'9 7.4
2017-Nov-11 04:17N 54°09' E 007°32'3 5.3
2017-Nov-11 03:48N 54°07' E 007°33'1 4.8
2017-Nov-11 03:30N 54°05' E 007°34'2 4.7
2017-Nov-11 03:00N 54°03' E 007°36'2 4.6
2017-Nov-11 02:30N 54°02' E 007°38'2 4.6
2017-Nov-11 02:00N 53°59' E 007°40'3 5.4
2017-Nov-11 01:30N 53°57' E 007°42'3 6.4
2017-Nov-11 00:58N 53°54' E 007°45'3 4.4
2017-Nov-11 00:23N 53°53' E 007°48'3 8.6
2017-Nov-11 00:00N 53°50' E 007°52'611.6
2017-Nov-10 23:30N 53°48' E 008°01'713.6
2017-Nov-10 23:00N 53°42' E 008°05'712.8
2017-Nov-10 22:30N 53°36' E 008°09'0 0.5
2017-Nov-10 21:59N 53°35' E 008°09'0 0.0
2017-Nov-10 21:29N 53°35' E 008°09'0 0.0
2017-Nov-10 20:59N 53°35' E 008°09'0 0.0
2017-Nov-10 20:26N 53°35' E 008°09'0 0.0
2017-Nov-10 19:59N 53°35' E 008°09'0 0.0
2017-Nov-10 19:29N 53°35' E 008°09'0 0.0
2017-Nov-10 18:59N 53°35' E 008°09'0 0.0
2017-Nov-10 18:29N 53°35' E 008°09'0 0.0
2017-Nov-10 17:56N 53°35' E 008°09'0 0.0
2017-Nov-10 17:29N 53°35' E 008°09'0 0.0
2017-Nov-10 16:59N 53°35' E 008°09'0 0.0
2017-Nov-10 16:29N 53°35' E 008°09'0 0.0
2017-Nov-10 15:59N 53°35' E 008°09'0 0.0
2017-Nov-10 15:29N 53°35' E 008°09'0 0.0
2017-Nov-10 14:59N 53°35' E 008°09'0 0.0
2017-Nov-10 14:29N 53°35' E 008°09'0 0.0
2017-Nov-10 13:59N 53°35' E 008°09'0 0.0
2017-Nov-10 13:20N 53°35' E 008°09'0 0.0
2017-Nov-10 12:59N 53°35' E 008°09'0 0.0
2017-Nov-10 12:29N 53°35' E 008°09'0 0.0
2017-Nov-10 11:59N 53°35' E 008°09'0 0.0
2017-Nov-10 11:29N 53°35' E 008°09'0 0.0
2017-Nov-10 10:59N 53°35' E 008°09'0 0.0
2017-Nov-10 10:23N 53°35' E 008°09'0 0.0
2017-Nov-10 09:59N 53°35' E 008°09'0 0.0
2017-Nov-10 09:29N 53°35' E 008°09'0 0.0
2017-Nov-10 08:56N 53°35' E 008°09'0 0.0
2017-Nov-10 08:29N 53°35' E 008°09'0 0.0
2017-Nov-10 07:59N 53°35' E 008°09'0 0.0
2017-Nov-10 07:29N 53°35' E 008°09'0 0.0
2017-Nov-10 06:59N 53°35' E 008°09'0 0.0
2017-Nov-10 06:29N 53°35' E 008°09'0 0.0
2017-Nov-10 05:53N 53°35' E 008°09'0 0.0
2017-Nov-10 05:29N 53°35' E 008°09'0 0.0
2017-Nov-10 04:59N 53°35' E 008°09'0 0.0
2017-Nov-10 04:29N 53°35' E 008°09'0 0.0
2017-Nov-10 03:59N 53°35' E 008°09'0 0.0
2017-Nov-10 03:29N 53°35' E 008°09'0 0.3
2017-Nov-10 03:00N 53°35' E 008°09'2 4.8
2017-Nov-10 02:30N 53°38' E 008°09'816.6
2017-Nov-10 02:00N 53°45' E 008°03'815.8
2017-Nov-10 01:30N 53°50' E 007°52'5 9.2
2017-Nov-10 01:00N 53°54' E 007°48'0 0.4
2017-Nov-09 23:44N 53°54' E 007°48'0 0.0
2017-Nov-09 23:29N 53°54' E 007°48'0 0.0
2017-Nov-09 22:59N 53°54' E 007°48'0 0.0
2017-Nov-09 22:23N 53°54' E 007°48'0 0.0
2017-Nov-09 21:59N 53°54' E 007°48'0 0.0
2017-Nov-09 21:26N 53°54' E 007°48'0 0.0
2017-Nov-09 20:59N 53°54' E 007°48'0 0.0
2017-Nov-09 20:26N 53°54' E 007°48'0 0.0
2017-Nov-09 19:59N 53°54' E 007°48'0 0.0
2017-Nov-09 19:29N 53°54' E 007°48'0 0.2
2017-Nov-09 18:38N 53°54' E 007°48'0 0.1
2017-Nov-09 18:29N 53°54' E 007°48'0 0.0
2017-Nov-09 13:30N 53°54' E 007°48'10 4.0
2017-Nov-09 11:01N 54°01' E 008°00'010.3
2017-Nov-09 10:59N 54°01' E 008°01'510.7
2017-Nov-09 10:30N 54°01' E 008°10'611.6
2017-Nov-09 10:00N 53°60' E 008°19'816.1
2017-Nov-09 09:30N 53°58' E 008°33'816.7
2017-Nov-09 09:00N 53°53' E 008°43'816.4
2017-Nov-09 08:30N 53°51' E 008°57'714.8
2017-Nov-09 08:00N 53°54' E 009°09'0 0.3
2017-Nov-09 07:30N 53°54' E 009°09'3 5.7
2017-Nov-09 07:00N 53°56' E 009°12'3 6.9
2017-Nov-09 06:30N 53°58' E 009°16'4 7.0
2017-Nov-09 06:00N 54°02' E 009°18'4 7.1
2017-Nov-09 05:30N 54°05' E 009°19'3 6.8
2017-Nov-09 05:00N 54°08' E 009°21'3 5.5
2017-Nov-09 04:30N 54°10' E 009°25'3 6.8
2017-Nov-09 04:00N 54°11' E 009°30'2 4.1
2017-Nov-09 03:30N 54°12' E 009°33'1 1.4
2017-Nov-09 02:58N 54°12' E 009°34'3 6.4
2017-Nov-09 02:30N 54°15' E 009°37'1 1.9
2017-Nov-09 02:00N 54°16' E 009°37'3 5.7
2017-Nov-09 01:30N 54°18' E 009°41'3 6.4
2017-Nov-09 01:00N 54°20' E 009°44'3 6.7
2017-Nov-09 00:30N 54°22' E 009°49'3 5.1
2017-Nov-09 00:00N 54°21' E 009°54'3 4.6
2017-Nov-08 23:24N 54°21' E 009°58'7 3.3
2017-Nov-08 21:11N 54°22' E 010°11'1 3.0
2017-Nov-08 20:41N 54°23' E 010°12'713.2
2017-Nov-08 20:09N 54°30' E 010°17'1 9.8
2017-Nov-08 20:00N 54°30' E 010°19'713.1
2017-Nov-08 19:30N 54°33' E 010°30'613.0
2017-Nov-08 19:01N 54°35' E 010°41'713.3
2017-Nov-08 18:30N 54°36' E 010°52'714.2
2017-Nov-08 18:01N 54°36' E 011°04'713.7
2017-Nov-08 17:30N 54°35' E 011°16'714.6
2017-Nov-08 17:01N 54°31' E 011°27'714.7
2017-Nov-08 16:30N 54°28' E 011°38'714.2
2017-Nov-08 16:01N 54°26' E 011°50'714.3
2017-Nov-08 15:30N 54°26' E 012°02'612.0
2017-Nov-08 15:00N 54°28' E 012°12'713.4
2017-Nov-08 14:30N 54°34' E 012°15'612.9
2017-Nov-08 14:00N 54°39' E 012°22'713.9
2017-Nov-08 13:29N 54°43' E 012°33'4613.5
2017-Nov-08 10:02N 55°01' E 013°48'212.6
2017-Nov-08 09:54N 55°01' E 013°50'513.0
2017-Nov-08 09:29N 55°03' E 013°59'612.4
2017-Nov-08 08:58N 55°07' E 014°08'613.2
2017-Nov-08 08:30N 55°12' E 014°15'  

Dump ship's entire track history